Time;durP1;ratioP1;P1;durP2;ratioP2;P2;SDS_P1;SDS_P2;PMS_P1;PMS_P2;Temp;Humidity;BMP_temperature;BMP_pressure;BME280_temperature;BME280_humidity;BME280_pressure;Samples;Min_cycle;Max_cycle;Signal;HPM_P1;HPM_P2
2020/12/07 14:48:37;;;;;;;;;;;10.90;99.90;;;;;;5083640;28;20379;-76
2020/12/07 14:51:22;;;;;;;;;;;10.80;99.90;;;;;;5121813;27;19915;-76
2020/12/07 14:53:48;;;;;;;;;;;10.80;99.90;;;;;;5092917;28;19962;-76
2020/12/07 14:56:26;;;;;;;;;;;10.80;99.90;;;;;;5101885;28;20360;-76
2020/12/07 15:07:17;;;;;;;;;;;10.60;99.90;;;;;;5086920;28;19947;-76
2020/12/07 15:15:08;;;;;;;;;;;10.40;99.90;;;;;;5088277;28;19919;-76
2020/12/07 15:17:33;;;;;;;;;;;10.30;99.90;;;;;;5093458;28;19908;-75
2020/12/07 15:19:59;;;;;;;;;;;10.20;99.90;;;;;;5088386;28;19995;-76
2020/12/07 15:22:24;;;;;;;;;;;10.10;99.90;;;;;;5086746;28;20391;-77
2020/12/07 15:24:50;;;;;;;;;;;10.10;99.90;;;;;;5088821;28;19923;-76
2020/12/07 15:27:15;;;;;;;;;;;10.00;99.90;;;;;;5088517;28;19909;-76
2020/12/07 15:29:41;;;;;;;;;;;10.00;99.90;;;;;;5095537;28;19908;-75
2020/12/07 15:32:07;;;;;;;;;;;9.90;99.90;;;;;;5087738;28;19912;-76
2020/12/07 15:34:33;;;;;;;;;;;9.90;99.90;;;;;;5086851;28;19912;-76
2020/12/07 15:36:58;;;;;;;;;;;9.80;99.90;;;;;;5088106;28;19915;-76
2020/12/07 15:39:24;;;;;;;;;;;9.70;99.90;;;;;;5087718;28;19913;-76
2020/12/07 15:41:49;;;;;;;;;;;9.70;99.90;;;;;;5090262;28;20379;-77
2020/12/07 15:44:15;;;;;;;;;;;9.60;99.90;;;;;;5089050;28;19929;-76
2020/12/07 15:46:43;;;;;;;;;;;9.60;99.90;;;;;;5087778;28;19909;-75
2020/12/07 15:49:08;;;;;;;;;;;9.60;99.90;;;;;;5087679;28;19940;-77
2020/12/07 15:51:34;;;;;;;;;;;9.60;99.90;;;;;;5087439;28;20292;-76
2020/12/07 15:53:59;;;;;;;;;;;9.50;99.90;;;;;;5087807;28;19908;-76
2020/12/07 15:56:25;;;;;;;;;;;9.50;99.90;;;;;;5077164;28;19908;-76
2020/12/07 15:58:51;;;;;;;;;;;9.50;99.90;;;;;;5077855;28;19908;-76
2020/12/07 16:01:18;;;;;;;;;;;9.50;99.90;;;;;;5074149;28;19920;-78
2020/12/07 16:03:44;;;;;;;;;;;9.40;99.90;;;;;;5073695;28;19913;-76
2020/12/07 16:06:13;;;;;;;;;;;9.40;99.90;;;;;;5073587;28;19913;-76
2020/12/07 16:08:39;;;;;;;;;;;9.40;99.90;;;;;;5074051;28;20326;-76
2020/12/07 16:11:04;;;;;;;;;;;9.30;99.90;;;;;;5083554;28;19915;-76
2020/12/07 16:13:30;;;;;;;;;;;9.20;99.90;;;;;;5080375;28;19912;-76
2020/12/07 16:15:55;;;;;;;;;;;9.20;99.90;;;;;;5072257;28;19909;-76
2020/12/07 16:18:21;;;;;;;;;;;9.20;99.90;;;;;;5072688;28;19986;-76
2020/12/07 16:20:47;;;;;;;;;;;9.10;99.90;;;;;;5076308;28;19913;-77
2020/12/07 16:23:12;;;;;;;;;;;9.10;99.90;;;;;;5073614;28;20002;-76
2020/12/07 16:25:38;;;;;;;;;;;9.10;99.90;;;;;;5073897;28;19913;-75
2020/12/07 16:28:04;;;;;;;;;;;9.10;99.90;;;;;;5073469;28;19915;-76
2020/12/07 16:30:30;;;;;;;;;;;9.10;99.90;;;;;;5075381;28;19909;-77
2020/12/07 16:32:55;;;;;;;;;;;9.00;99.90;;;;;;5073015;28;19939;-77
2020/12/07 16:35:21;;;;;;;;;;;9.00;99.90;;;;;;5073458;28;20268;-76
2020/12/07 16:37:46;;;;;;;;;;;9.00;99.90;;;;;;5073340;28;19908;-76
2020/12/07 16:40:12;;;;;;;;;;;9.00;99.90;;;;;;5073118;28;20392;-76
2020/12/07 16:42:38;;;;;;;;;;;8.90;99.90;;;;;;5072905;28;19912;-76
2020/12/07 16:45:03;;;;;;;;;;;8.90;99.90;;;;;;5074642;28;19921;-76
2020/12/07 16:47:31;;;;;;;;;;;8.80;99.90;;;;;;5073249;28;20308;-76
2020/12/07 16:49:57;;;;;;;;;;;8.80;99.90;;;;;;5107499;27;19909;-76
2020/12/07 16:52:23;;;;;;;;;;;8.80;99.90;;;;;;5072902;28;20007;-77
2020/12/07 16:54:48;;;;;;;;;;;8.80;99.90;;;;;;5074543;28;19962;-76
2020/12/07 16:57:14;;;;;;;;;;;8.80;99.90;;;;;;5073291;28;20399;-76
2020/12/07 16:59:39;;;;;;;;;;;8.80;99.90;;;;;;5073067;28;20297;-76
2020/12/07 17:02:05;;;;;;;;;;;8.80;99.90;;;;;;5073338;28;20003;-75
2020/12/07 17:04:30;;;;;;;;;;;8.80;99.90;;;;;;5084373;28;19916;-76
2020/12/07 17:06:56;;;;;;;;;;;8.80;99.90;;;;;;5073793;28;20011;-77
2020/12/07 17:09:25;;;;;;;;;;;8.80;99.90;;;;;;5071746;28;19955;-75
2020/12/07 17:11:51;;;;;;;;;;;8.80;99.90;;;;;;5072441;28;20254;-75
2020/12/07 17:14:18;;;;;;;;;;;8.80;99.90;;;;;;5073041;28;19909;-77
2020/12/07 17:16:44;;;;;;;;;;;8.80;99.90;;;;;;5075639;28;19948;-76
2020/12/07 17:19:09;;;;;;;;;;;8.80;99.90;;;;;;5073644;28;19962;-76
2020/12/07 17:21:35;;;;;;;;;;;8.90;99.90;;;;;;5072500;28;20027;-76
2020/12/07 17:24:01;;;;;;;;;;;8.90;99.90;;;;;;5072343;28;19916;-76
2020/12/07 17:26:27;;;;;;;;;;;8.90;99.90;;;;;;5072654;28;19940;-76
2020/12/07 17:28:53;;;;;;;;;;;9.00;99.90;;;;;;5072735;28;19952;-76
2020/12/07 17:31:20;;;;;;;;;;;9.00;99.90;;;;;;5071745;28;19909;-77
2020/12/07 17:33:45;;;;;;;;;;;9.10;99.90;;;;;;5077451;28;19908;-76
2020/12/07 17:36:11;;;;;;;;;;;9.10;99.90;;;;;;5085581;28;19931;-77
2020/12/07 17:38:37;;;;;;;;;;;9.10;99.90;;;;;;5072685;28;20390;-77
2020/12/07 17:41:03;;;;;;;;;;;9.20;99.90;;;;;;5072485;28;20282;-75
2020/12/07 17:43:28;;;;;;;;;;;9.20;99.90;;;;;;5073035;28;20016;-77
2020/12/07 17:45:55;;;;;;;;;;;9.30;99.90;;;;;;5071071;28;19962;-77
2020/12/07 17:48:21;;;;;;;;;;;9.30;99.90;;;;;;5073209;28;19950;-76
2020/12/07 17:50:50;;;;;;;;;;;9.20;99.90;;;;;;5073438;28;20049;-76
2020/12/07 17:53:16;;;;;;;;;;;9.30;99.90;;;;;;5073035;28;20003;-76
2020/12/07 17:55:41;;;;;;;;;;;9.20;99.90;;;;;;5071712;28;19995;-76
2020/12/07 17:58:07;;;;;;;;;;;9.30;99.90;;;;;;5085784;28;20521;-76
2020/12/07 18:00:32;;;;;;;;;;;9.30;99.90;;;;;;5070787;28;19908;-77
2020/12/07 18:02:59;;;;;;;;;;;9.30;99.90;;;;;;5071776;28;19924;-76
2020/12/07 18:05:24;;;;;;;;;;;9.40;99.90;;;;;;5076872;28;20289;-76
2020/12/07 18:07:50;;;;;;;;;;;9.40;99.90;;;;;;5075819;28;19914;-76
2020/12/07 18:10:16;;;;;;;;;;;9.40;99.90;;;;;;5072006;28;19913;-74
2020/12/07 18:12:41;;;;;;;;;;;9.20;99.90;;;;;;5071096;28;20368;-75
2020/12/07 18:15:07;;;;;;;;;;;8.30;99.90;;;;;;5071669;28;19912;-76
2020/12/07 18:17:33;;;;;;;;;;;7.90;99.90;;;;;;5069878;28;20027;-76
2020/12/07 18:19:59;;;;;;;;;;;7.60;99.90;;;;;;5082370;28;19962;-75
2020/12/07 18:22:25;;;;;;;;;;;7.30;99.90;;;;;;5071551;28;19947;-76
2020/12/07 18:24:51;;;;;;;;;;;7.20;99.90;;;;;;5074914;28;19955;-77
2020/12/07 18:27:16;;;;;;;;;;;7.10;99.90;;;;;;5071631;28;19909;-77
2020/12/07 18:29:42;;;;;;;;;;;7.10;99.90;;;;;;5084845;28;19908;-75
2020/12/07 18:32:07;;;;;;;;;;;7.10;99.90;;;;;;5074236;28;19916;-76
2020/12/07 18:34:33;;;;;;;;;;;7.20;99.90;;;;;;5072671;28;19951;-76
2020/12/07 18:36:59;;;;;;;;;;;7.30;99.90;;;;;;5076212;28;20261;-76
2020/12/07 18:39:24;;;;;;;;;;;7.30;99.90;;;;;;5071162;28;19913;-76
2020/12/07 18:41:50;;;;;;;;;;;7.40;99.90;;;;;;5071299;28;19909;-75
2020/12/07 18:44:16;;;;;;;;;;;7.40;99.90;;;;;;5070744;28;20333;-76
2020/12/07 18:46:41;;;;;;;;;;;7.40;99.90;;;;;;5070750;28;19953;-75
2020/12/07 18:49:07;;;;;;;;;;;7.40;99.90;;;;;;5069789;28;19908;-76
2020/12/07 18:51:32;;;;;;;;;;;7.40;99.90;;;;;;5073309;28;19959;-76
2020/12/07 18:53:58;;;;;;;;;;;7.40;99.90;;;;;;5071501;28;20388;-77
2020/12/07 18:56:24;;;;;;;;;;;7.50;99.90;;;;;;5070903;28;19912;-77
2020/12/07 18:58:56;;;;;;;;;;;7.50;99.90;;;;;;5071300;28;19912;-77
2020/12/07 19:01:21;;;;;;;;;;;7.50;99.90;;;;;;5071230;28;19909;-76
2020/12/07 19:03:47;;;;;;;;;;;7.50;99.90;;;;;;5070607;28;20319;-78
2020/12/07 19:06:14;;;;;;;;;;;7.50;99.90;;;;;;5071285;28;20357;-76
2020/12/07 19:08:39;;;;;;;;;;;7.50;99.90;;;;;;5076529;28;19921;-73
2020/12/07 19:11:05;;;;;;;;;;;7.50;99.90;;;;;;5065569;28;19916;-78
2020/12/07 19:13:31;;;;;;;;;;;7.50;99.90;;;;;;5066772;28;19909;-77
2020/12/07 19:15:56;;;;;;;;;;;7.50;99.90;;;;;;5068198;28;20023;-77
2020/12/07 19:18:22;;;;;;;;;;;7.60;99.90;;;;;;5070183;28;19952;-77
2020/12/07 19:20:47;;;;;;;;;;;7.60;99.90;;;;;;5062854;28;19917;-75
2020/12/07 19:23:13;;;;;;;;;;;7.60;99.90;;;;;;5073777;28;20015;-77
2020/12/07 19:25:39;;;;;;;;;;;7.50;99.90;;;;;;5068209;28;20300;-75
2020/12/07 19:28:04;;;;;;;;;;;7.50;99.90;;;;;;5073284;28;19912;-77
2020/12/07 19:30:30;;;;;;;;;;;7.50;99.90;;;;;;5063486;28;19913;-78
2020/12/07 19:32:55;;;;;;;;;;;7.40;99.90;;;;;;5068146;28;19951;-77
2020/12/07 19:35:21;;;;;;;;;;;7.40;99.90;;;;;;5067865;28;19924;-77
2020/12/07 19:37:50;;;;;;;;;;;7.40;99.90;;;;;;5083799;28;20292;-77
2020/12/07 19:40:16;;;;;;;;;;;7.40;99.90;;;;;;5068850;28;19913;-77
2020/12/07 19:42:42;;;;;;;;;;;7.50;99.90;;;;;;5064465;28;19912;-76
2020/12/07 19:45:08;;;;;;;;;;;7.50;99.90;;;;;;5070639;28;20061;-77
2020/12/07 19:47:34;;;;;;;;;;;7.50;99.90;;;;;;5078698;28;19919;-77
2020/12/07 19:49:59;;;;;;;;;;;7.50;99.90;;;;;;5074021;28;19919;-76
2020/12/07 19:52:25;;;;;;;;;;;7.40;99.90;;;;;;5073327;28;19912;-76
2020/12/07 19:54:50;;;;;;;;;;;7.40;99.90;;;;;;5074078;28;20325;-77
2020/12/07 19:57:16;;;;;;;;;;;7.50;99.90;;;;;;5073591;28;19918;-78
2020/12/07 19:59:42;;;;;;;;;;;7.50;99.90;;;;;;5073758;28;19915;-76
2020/12/07 20:02:08;;;;;;;;;;;7.40;99.90;;;;;;5077210;28;19913;-74
2020/12/07 20:04:34;;;;;;;;;;;7.40;99.90;;;;;;5073924;28;19916;-74
2020/12/07 20:07:00;;;;;;;;;;;7.40;99.90;;;;;;5070080;28;19962;-76
2020/12/07 20:09:25;;;;;;;;;;;7.40;99.90;;;;;;5103848;27;19912;-75
2020/12/07 20:11:51;;;;;;;;;;;7.40;99.90;;;;;;5074463;28;19947;-76
2020/12/07 20:14:17;;;;;;;;;;;7.40;99.90;;;;;;5078071;28;19915;-78
2020/12/07 20:16:42;;;;;;;;;;;7.50;99.90;;;;;;5073279;28;20276;-75
2020/12/07 20:19:08;;;;;;;;;;;7.40;99.90;;;;;;5073178;28;19935;-75
2020/12/07 20:21:33;;;;;;;;;;;7.40;99.90;;;;;;5074006;28;19909;-76
2020/12/07 20:23:59;;;;;;;;;;;7.30;99.90;;;;;;5068729;28;20268;-75
2020/12/07 20:26:25;;;;;;;;;;;7.30;99.90;;;;;;5081273;28;20380;-77
2020/12/07 20:28:50;;;;;;;;;;;7.30;99.90;;;;;;5073298;28;19923;-74
2020/12/07 20:31:20;;;;;;;;;;;7.30;99.90;;;;;;5075441;28;19909;-75
2020/12/07 20:33:45;;;;;;;;;;;7.20;99.90;;;;;;5072807;28;19912;-74
2020/12/07 20:36:11;;;;;;;;;;;7.20;99.90;;;;;;5075122;28;20257;-80
2020/12/07 20:38:37;;;;;;;;;;;7.10;99.90;;;;;;5082362;28;20341;-79
2020/12/07 20:41:03;;;;;;;;;;;7.10;99.90;;;;;;5073188;28;19916;-74
2020/12/07 20:43:29;;;;;;;;;;;7.00;99.90;;;;;;5072975;28;20372;-82
2020/12/07 20:45:54;;;;;;;;;;;7.00;99.90;;;;;;5073216;28;19912;-80
2020/12/07 20:48:20;;;;;;;;;;;7.00;99.90;;;;;;5072281;28;19948;-81
2020/12/07 20:50:45;;;;;;;;;;;7.00;99.90;;;;;;5080263;28;20289;-75
2020/12/07 20:53:12;;;;;;;;;;;7.00;99.90;;;;;;5066536;28;19923;-73
2020/12/07 20:55:37;;;;;;;;;;;7.00;99.90;;;;;;5072886;28;19991;-74
2020/12/07 20:58:03;;;;;;;;;;;7.10;99.90;;;;;;5066305;28;20003;-72
2020/12/07 21:00:28;;;;;;;;;;;7.00;99.90;;;;;;5059576;28;19920;-73
2020/12/07 21:02:54;;;;;;;;;;;7.10;99.90;;;;;;5066545;28;19959;-73
2020/12/07 21:05:20;;;;;;;;;;;7.00;99.90;;;;;;5069071;28;19924;-76
2020/12/07 21:07:45;;;;;;;;;;;7.10;99.90;;;;;;5066570;28;19908;-74
2020/12/07 21:10:11;;;;;;;;;;;7.10;99.90;;;;;;5074784;28;19962;-80
2020/12/07 21:12:37;;;;;;;;;;;7.10;99.90;;;;;;5076945;28;20281;-80
2020/12/07 21:15:03;;;;;;;;;;;7.10;99.90;;;;;;5079719;28;20442;-79
2020/12/07 21:17:28;;;;;;;;;;;7.00;99.90;;;;;;5077373;28;20333;-79
2020/12/07 21:19:54;;;;;;;;;;;7.00;99.90;;;;;;5074213;28;19953;-80
2020/12/07 21:22:19;;;;;;;;;;;6.90;99.90;;;;;;5076101;28;19909;-80
2020/12/07 21:24:47;;;;;;;;;;;6.90;99.90;;;;;;5073936;28;20403;-75
2020/12/07 21:27:12;;;;;;;;;;;6.90;99.90;;;;;;5072677;28;19918;-80
2020/12/07 21:29:38;;;;;;;;;;;6.80;99.90;;;;;;5070163;28;19920;-74
2020/12/07 21:32:03;;;;;;;;;;;6.80;99.90;;;;;;5064338;28;20356;-80
2020/12/07 21:34:29;;;;;;;;;;;6.80;99.90;;;;;;5064462;28;19943;-77
2020/12/07 21:36:54;;;;;;;;;;;6.80;99.90;;;;;;5071444;28;19920;-77
2020/12/07 21:39:20;;;;;;;;;;;6.90;99.90;;;;;;5065941;28;19909;-74
2020/12/07 21:41:46;;;;;;;;;;;7.00;99.90;;;;;;5071752;28;19963;-74
2020/12/07 21:44:11;;;;;;;;;;;6.90;99.90;;;;;;5071465;28;20335;-74
2020/12/07 21:46:37;;;;;;;;;;;6.90;99.90;;;;;;5077252;28;19922;-74
2020/12/07 21:49:03;;;;;;;;;;;7.00;99.90;;;;;;5074370;28;19908;-76
2020/12/07 21:51:28;;;;;;;;;;;6.90;99.90;;;;;;5071366;28;19999;-80
2020/12/07 21:53:54;;;;;;;;;;;7.00;99.90;;;;;;5070855;28;19909;-75
